Time;durP1;ratioP1;P1;durP2;ratioP2;P2;SDS_P1;SDS_P2;PMS_P1;PMS_P2;Temp;Humidity;BMP_temperature;BMP_pressure;BME280_temperature;BME280_humidity;BME280_pressure;Samples;Min_cycle;Max_cycle;Signal;HPM_P1;HPM_P2
2021/01/27 00:02:04;;;;;;;11.52;7.80;;;;;;;;;;5073647;28;20220;-50
2021/01/27 00:04:30;;;;;;;9.27;8.07;;;;;;;;;;5073480;28;20201;-49
2021/01/27 00:06:56;;;;;;;13.73;7.87;;;;;;;;;;5073686;28;20200;-50
2021/01/27 00:09:22;;;;;;;12.60;8.50;;;;;;;;;;5072220;28;20424;-50
2021/01/27 00:11:48;;;;;;;9.03;8.13;;;;;;;;;;5073282;28;20409;-50
2021/01/27 00:14:14;;;;;;;9.60;8.00;;;;;;;;;;5076867;28;20423;-50
2021/01/27 00:16:40;;;;;;;10.97;8.23;;;;;;;;;;5093374;28;20883;-50
2021/01/27 00:19:06;;;;;;;15.13;8.80;;;;;;;;;;5093516;28;20466;-52
2021/01/27 00:21:32;;;;;;;11.35;7.95;;;;;;;;;;5093440;28;20937;-50
2021/01/27 00:23:58;;;;;;;9.40;7.45;;;;;;;;;;5075136;28;20174;-51
2021/01/27 00:26:24;;;;;;;9.27;7.00;;;;;;;;;;5072939;28;20197;-51
2021/01/27 00:28:50;;;;;;;12.70;8.00;;;;;;;;;;5073200;28;20421;-53
2021/01/27 00:31:16;;;;;;;11.65;7.45;;;;;;;;;;5072995;28;20432;-53
2021/01/27 00:33:42;;;;;;;14.23;7.20;;;;;;;;;;5073297;28;20221;-53
2021/01/27 00:36:08;;;;;;;9.73;7.32;;;;;;;;;;5072589;28;20337;-50
2021/01/27 00:38:34;;;;;;;7.47;6.78;;;;;;;;;;5072363;28;20202;-51
2021/01/27 00:41:00;;;;;;;8.33;6.97;;;;;;;;;;5073254;28;20216;-52
2021/01/27 00:43:26;;;;;;;10.73;7.13;;;;;;;;;;5072844;28;20490;-53
2021/01/27 00:45:53;;;;;;;10.02;7.07;;;;;;;;;;5072499;28;20892;-52
2021/01/27 00:48:19;;;;;;;8.65;7.43;;;;;;;;;;5084143;28;20189;-52
2021/01/27 00:50:45;;;;;;;11.73;7.70;;;;;;;;;;5093149;28;20173;-50
2021/01/27 00:53:11;;;;;;;8.60;6.57;;;;;;;;;;5093045;28;20161;-50
2021/01/27 00:55:37;;;;;;;14.27;7.50;;;;;;;;;;5092519;28;20959;-52
2021/01/27 00:58:04;;;;;;;14.43;7.15;;;;;;;;;;5092693;28;20439;-52
2021/01/27 01:00:34;;;;;;;8.30;6.55;;;;;;;;;;5092835;28;20234;-49
2021/01/27 01:03:01;;;;;;;8.65;6.00;;;;;;;;;;5092709;28;20203;-52
2021/01/27 01:05:28;;;;;;;9.35;7.05;;;;;;;;;;5092618;28;20214;-53
2021/01/27 01:07:54;;;;;;;7.55;5.75;;;;;;;;;;5092693;28;20240;-49
2021/01/27 01:10:40;;;;;;;11.00;6.87;;;;;;;;;;5078635;28;20626;-50
2021/01/27 01:13:26;;;;;;;7.40;5.95;;;;;;;;;;5092445;28;20482;-50
2021/01/27 01:15:54;;;;;;;7.70;5.57;;;;;;;;;;5090880;28;20178;-50
2021/01/27 01:18:22;;;;;;;7.07;6.43;;;;;;;;;;5092222;28;20192;-53
2021/01/27 01:20:49;;;;;;;7.68;5.85;;;;;;;;;;5092500;28;20634;-50
2021/01/27 01:23:22;;;;;;;9.80;5.95;;;;;;;;;;5092258;28;20207;-50
2021/01/27 01:25:48;;;;;;;9.35;6.40;;;;;;;;;;5092216;28;20713;-52
2021/01/27 01:28:15;;;;;;;7.22;5.70;;;;;;;;;;5092250;28;20196;-52
2021/01/27 01:30:45;;;;;;;11.23;5.97;;;;;;;;;;5092469;28;20174;-52
2021/01/27 01:33:12;;;;;;;8.85;5.53;;;;;;;;;;5092130;28;20193;-52
2021/01/27 01:35:39;;;;;;;8.18;4.93;;;;;;;;;;5091809;28;20174;-52
2021/01/27 01:38:05;;;;;;;7.22;5.65;;;;;;;;;;5091974;28;20280;-52
2021/01/27 01:40:33;;;;;;;5.82;5.22;;;;;;;;;;5090619;28;20177;-52
2021/01/27 01:43:02;;;;;;;9.93;6.55;;;;;;;;;;5091997;28;20196;-52
2021/01/27 01:45:35;;;;;;;7.57;5.95;;;;;;;;;;5091520;28;20167;-52
2021/01/27 01:48:02;;;;;;;7.50;6.25;;;;;;;;;;5091337;28;20370;-52
2021/01/27 01:50:30;;;;;;;10.43;6.68;;;;;;;;;;5091165;28;20189;-52
2021/01/27 01:52:57;;;;;;;7.78;6.03;;;;;;;;;;5091793;28;20174;-52
2021/01/27 01:55:23;;;;;;;8.25;6.35;;;;;;;;;;5091415;28;20162;-51
2021/01/27 01:57:50;;;;;;;7.38;6.00;;;;;;;;;;5091673;28;20176;-52
2021/01/27 02:00:16;;;;;;;7.20;6.03;;;;;;;;;;5091793;28;20554;-52
2021/01/27 02:02:43;;;;;;;7.20;6.07;;;;;;;;;;5091314;28;20214;-52
2021/01/27 02:05:12;;;;;;;8.73;6.05;;;;;;;;;;5091095;28;20637;-52
2021/01/27 02:07:38;;;;;;;6.13;5.13;;;;;;;;;;5091329;28;20162;-51
2021/01/27 02:10:08;;;;;;;7.37;5.93;;;;;;;;;;5090283;28;20204;-52
2021/01/27 02:12:43;;;;;;;5.88;5.05;;;;;;;;;;5091781;28;20754;-51
2021/01/27 02:15:19;;;;;;;6.95;5.38;;;;;;;;;;5091830;28;20507;-52
2021/01/27 02:17:47;;;;;;;7.30;6.05;;;;;;;;;;5091692;28;20183;-52
2021/01/27 02:20:17;;;;;;;6.85;5.63;;;;;;;;;;5078751;28;20247;-52
2021/01/27 02:22:55;;;;;;;6.13;5.53;;;;;;;;;;5071123;28;20235;-51
2021/01/27 02:25:30;;;;;;;9.05;6.45;;;;;;;;;;5070827;28;20220;-52
2021/01/27 02:28:02;;;;;;;7.05;5.93;;;;;;;;;;5070875;28;20169;-52
2021/01/27 02:30:45;;;;;;;7.95;5.78;;;;;;;;;;5070966;28;20180;-52
2021/01/27 02:33:21;;;;;;;7.03;5.97;;;;;;;;;;5070939;28;20254;-51
2021/01/27 02:36:03;;;;;;;5.75;5.22;;;;;;;;;;5070793;28;20268;-52
2021/01/27 02:38:41;;;;;;;6.63;6.00;;;;;;;;;;5070632;28;20675;-52
2021/01/27 02:41:17;;;;;;;6.30;5.70;;;;;;;;;;5071269;28;20173;-52
2021/01/27 02:43:46;;;;;;;7.13;4.72;;;;;;;;;;5085060;28;20185;-52
2021/01/27 02:46:16;;;;;;;7.97;6.10;;;;;;;;;;5090669;28;20549;-52
2021/01/27 02:48:57;;;;;;;6.40;5.10;;;;;;;;;;5090641;28;20573;-52
2021/01/27 02:51:26;;;;;;;6.40;5.65;;;;;;;;;;5091022;28;20303;-51
2021/01/27 02:53:56;;;;;;;6.30;5.65;;;;;;;;;;5090787;28;20184;-51
2021/01/27 02:56:30;;;;;;;7.03;6.07;;;;;;;;;;5090767;28;20169;-52
2021/01/27 02:58:59;;;;;;;8.60;5.95;;;;;;;;;;5090536;28;20703;-52
2021/01/27 03:01:31;;;;;;;6.10;5.50;;;;;;;;;;5090422;28;20202;-52
2021/01/27 03:04:01;;;;;;;6.05;5.43;;;;;;;;;;5090770;28;20629;-51
2021/01/27 03:06:28;;;;;;;8.38;5.07;;;;;;;;;;5090411;28;20218;-51
2021/01/27 03:09:02;;;;;;;5.70;5.07;;;;;;;;;;5090671;28;20193;-51
2021/01/27 03:11:29;;;;;;;5.72;5.05;;;;;;;;;;5074250;28;20186;-52
2021/01/27 03:13:56;;;;;;;7.68;6.15;;;;;;;;;;5070338;28;20170;-51
2021/01/27 03:16:24;;;;;;;10.32;5.22;;;;;;;;;;5070006;28;20175;-51
2021/01/27 03:19:01;;;;;;;6.57;5.25;;;;;;;;;;5070591;28;20210;-52
2021/01/27 03:21:30;;;;;;;5.20;4.70;;;;;;;;;;5070396;28;20174;-52
2021/01/27 03:23:58;;;;;;;6.25;4.80;;;;;;;;;;5070365;28;20166;-52
2021/01/27 03:26:28;;;;;;;6.53;4.70;;;;;;;;;;5069846;28;20254;-51
2021/01/27 03:29:03;;;;;;;7.68;4.72;;;;;;;;;;5070247;28;20194;-52
2021/01/27 03:31:31;;;;;;;6.25;5.40;;;;;;;;;;5070110;28;20181;-52
2021/01/27 03:34:15;;;;;;;5.80;4.50;;;;;;;;;;5070465;28;20162;-52
2021/01/27 03:36:46;;;;;;;9.20;4.80;;;;;;;;;;5069782;28;20174;-52
2021/01/27 03:39:14;;;;;;;7.30;5.10;;;;;;;;;;5070191;28;20221;-52
2021/01/27 03:41:51;;;;;;;10.10;4.50;;;;;;;;;;5070368;28;20564;-52
2021/01/27 03:44:26;;;;;;;5.00;4.30;;;;;;;;;;5070321;28;20216;-52
2021/01/27 03:46:56;;;;;;;5.88;4.70;;;;;;;;;;5069774;28;20181;-52
2021/01/27 03:49:31;;;;;;;5.40;4.90;;;;;;;;;;5070062;28;20186;-52
2021/01/27 03:52:00;;;;;;;5.07;4.57;;;;;;;;;;5070338;28;20173;-51
2021/01/27 03:54:29;;;;;;;5.88;4.90;;;;;;;;;;5070470;28;20248;-52
2021/01/27 03:56:55;;;;;;;7.07;4.88;;;;;;;;;;5070119;28;20185;-52
2021/01/27 03:59:21;;;;;;;6.70;4.70;;;;;;;;;;5070003;28;20198;-52
2021/01/27 04:01:58;;;;;;;5.20;4.70;;;;;;;;;;5070155;28;20515;-53
2021/01/27 04:04:24;;;;;;;6.40;4.32;;;;;;;;;;5070162;28;20392;-52
2021/01/27 04:06:51;;;;;;;8.63;4.47;;;;;;;;;;5070260;28;20177;-52
2021/01/27 04:09:17;;;;;;;5.70;4.40;;;;;;;;;;5069502;28;20286;-52
2021/01/27 04:11:43;;;;;;;9.10;5.53;;;;;;;;;;5090899;28;20166;-52
2021/01/27 04:14:10;;;;;;;5.60;5.00;;;;;;;;;;5093795;28;20197;-52
2021/01/27 04:16:36;;;;;;;6.88;3.92;;;;;;;;;;5093516;28;20222;-52
2021/01/27 04:19:03;;;;;;;6.90;4.07;;;;;;;;;;5093423;28;20205;-51
2021/01/27 04:21:29;;;;;;;4.65;3.92;;;;;;;;;;5093708;28;20161;-51
2021/01/27 04:23:55;;;;;;;7.50;4.38;;;;;;;;;;5093626;28;20299;-52
2021/01/27 04:26:22;;;;;;;4.30;4.00;;;;;;;;;;5093133;28;20252;-51
2021/01/27 04:28:48;;;;;;;4.50;3.92;;;;;;;;;;5093252;28;20431;-51
2021/01/27 04:31:14;;;;;;;4.50;3.97;;;;;;;;;;5093331;28;20244;-51
2021/01/27 04:33:40;;;;;;;4.70;3.80;;;;;;;;;;5093406;28;20212;-52
2021/01/27 04:36:07;;;;;;;4.73;4.30;;;;;;;;;;5093056;28;20399;-52
2021/01/27 04:38:33;;;;;;;4.22;3.75;;;;;;;;;;5093152;28;20459;-52
2021/01/27 04:40:59;;;;;;;6.40;4.38;;;;;;;;;;5081581;28;20243;-51
2021/01/27 04:43:36;;;;;;;4.70;4.30;;;;;;;;;;5072927;28;20179;-52
2021/01/27 04:46:08;;;;;;;5.75;4.22;;;;;;;;;;5072498;28;20168;-52
2021/01/27 04:48:42;;;;;;;4.80;3.88;;;;;;;;;;5072615;28;20252;-51
2021/01/27 04:51:13;;;;;;;8.93;4.57;;;;;;;;;;5072827;28;20176;-52
2021/01/27 04:54:00;;;;;;;4.40;4.03;;;;;;;;;;5072766;28;20200;-51
2021/01/27 04:56:32;;;;;;;4.47;4.07;;;;;;;;;;5072479;28;20548;-51
2021/01/27 04:59:23;;;;;;;4.45;3.50;;;;;;;;;;5072466;28;20567;-51
2021/01/27 05:02:06;;;;;;;5.50;3.85;;;;;;;;;;5072437;28;20642;-51
2021/01/27 05:04:49;;;;;;;4.25;3.85;;;;;;;;;;5072538;28;20176;-52
2021/01/27 05:07:17;;;;;;;4.53;4.13;;;;;;;;;;5072435;28;20166;-52
2021/01/27 05:09:51;;;;;;;6.30;4.05;;;;;;;;;;5072320;28;20182;-52
2021/01/27 05:12:17;;;;;;;4.05;3.60;;;;;;;;;;5072154;28;20186;-51
2021/01/27 05:14:47;;;;;;;10.88;4.88;;;;;;;;;;5072116;28;20174;-53
2021/01/27 05:17:15;;;;;;;4.72;3.92;;;;;;;;;;5072259;28;20607;-51
2021/01/27 05:19:41;;;;;;;4.20;3.80;;;;;;;;;;5072400;28;20209;-52
2021/01/27 05:22:08;;;;;;;4.00;3.63;;;;;;;;;;5072215;28;20536;-52
2021/01/27 05:24:34;;;;;;;4.35;3.95;;;;;;;;;;5071869;28;20454;-52
2021/01/27 05:27:04;;;;;;;8.50;4.30;;;;;;;;;;5070849;28;20174;-52
2021/01/27 05:29:51;;;;;;;4.60;4.20;;;;;;;;;;5071928;28;20904;-52
2021/01/27 05:32:19;;;;;;;7.13;4.90;;;;;;;;;;5072112;28;20165;-51
2021/01/27 05:34:46;;;;;;;4.25;3.67;;;;;;;;;;5071925;28;20196;-51
2021/01/27 05:37:19;;;;;;;5.03;4.50;;;;;;;;;;5071685;28;20257;-52
2021/01/27 05:39:46;;;;;;;4.90;3.97;;;;;;;;;;5071569;28;20696;-52
2021/01/27 05:42:21;;;;;;;4.28;3.95;;;;;;;;;;5072232;28;20175;-51
2021/01/27 05:44:48;;;;;;;4.85;3.80;;;;;;;;;;5071705;28;20166;-52
2021/01/27 05:47:24;;;;;;;5.38;3.55;;;;;;;;;;5071343;28;20261;-51
2021/01/27 05:49:50;;;;;;;4.47;4.05;;;;;;;;;;5071641;28;20201;-51
2021/01/27 05:52:22;;;;;;;4.10;3.77;;;;;;;;;;5071384;28;20170;-51
2021/01/27 05:54:48;;;;;;;5.30;4.47;;;;;;;;;;5071625;28;20404;-51
2021/01/27 05:57:25;;;;;;;4.53;4.00;;;;;;;;;;5071062;28;20253;-52
2021/01/27 05:59:52;;;;;;;5.47;3.67;;;;;;;;;;5071198;28;20873;-52
2021/01/27 06:02:18;;;;;;;5.50;3.85;;;;;;;;;;5071320;28;20158;-52
2021/01/27 06:04:53;;;;;;;4.57;3.93;;;;;;;;;;5071287;28;20657;-51
2021/01/27 06:07:23;;;;;;;5.32;3.65;;;;;;;;;;5071002;28;20893;-52
2021/01/27 06:09:50;;;;;;;8.10;4.22;;;;;;;;;;5071340;28;20198;-51
2021/01/27 06:12:22;;;;;;;4.95;3.90;;;;;;;;;;5070703;28;20178;-52
2021/01/27 06:14:49;;;;;;;5.57;4.10;;;;;;;;;;5085705;28;20188;-51
2021/01/27 06:17:23;;;;;;;5.13;4.40;;;;;;;;;;5090846;28;20591;-52
2021/01/27 06:19:59;;;;;;;5.70;4.50;;;;;;;;;;5091125;28;20258;-52
2021/01/27 06:22:37;;;;;;;5.32;4.35;;;;;;;;;;5091149;28;20169;-53
2021/01/27 06:25:22;;;;;;;4.70;4.20;;;;;;;;;;5091255;28;20166;-53
2021/01/27 06:27:56;;;;;;;7.18;4.55;;;;;;;;;;5091000;28;20177;-51
2021/01/27 06:30:41;;;;;;;5.20;4.22;;;;;;;;;;5091206;28;20777;-52
2021/01/27 06:33:10;;;;;;;5.20;4.00;;;;;;;;;;5091047;28;20207;-52
2021/01/27 06:35:45;;;;;;;6.38;4.43;;;;;;;;;;5090289;28;20553;-52
2021/01/27 06:38:17;;;;;;;5.15;4.57;;;;;;;;;;5090711;28;20208;-51
2021/01/27 06:40:50;;;;;;;7.25;4.40;;;;;;;;;;5086560;28;20576;-52
2021/01/27 06:43:22;;;;;;;4.78;4.20;;;;;;;;;;5070672;28;20170;-52
2021/01/27 06:46:09;;;;;;;3.92;3.63;;;;;;;;;;5087481;28;20253;-52
2021/01/27 06:48:53;;;;;;;7.15;3.70;;;;;;;;;;5049284;28;20213;-51
2021/01/27 06:51:37;;;;;;;4.13;3.83;;;;;;;;;;5091001;28;20239;-52
2021/01/27 06:54:22;;;;;;;4.38;3.97;;;;;;;;;;5090821;28;20264;-51
2021/01/27 06:56:56;;;;;;;4.97;4.57;;;;;;;;;;5090480;28;20173;-51
2021/01/27 06:59:22;;;;;;;5.00;4.50;;;;;;;;;;5090664;28;20226;-52
2021/01/27 07:02:09;;;;;;;6.00;3.73;;;;;;;;;;5090285;28;20181;-52
2021/01/27 07:04:39;;;;;;;4.55;3.67;;;;;;;;;;5049188;28;20404;-52
2021/01/27 07:07:20;;;;;;;4.03;3.75;;;;;;;;;;5089812;28;20157;-53
2021/01/27 07:10:01;;;;;;;4.00;3.70;;;;;;;;;;5090247;28;20247;-53
2021/01/27 07:12:29;;;;;;;3.63;3.30;;;;;;;;;;5086928;28;20173;-51
2021/01/27 07:15:03;;;;;;;4.07;3.40;;;;;;;;;;5090352;28;20525;-52
2021/01/27 07:17:48;;;;;;;4.47;3.83;;;;;;;;;;5089864;28;20166;-51
2021/01/27 07:20:17;;;;;;;4.40;3.70;;;;;;;;;;5090267;28;20283;-52
2021/01/27 07:22:51;;;;;;;7.53;4.70;;;;;;;;;;5090473;28;20656;-53
2021/01/27 07:25:45;;;;;;;3.80;3.50;;;;;;;;;;5090564;28;20161;-51
2021/01/27 07:28:20;;;;;;;5.05;3.72;;;;;;;;;;5058825;28;20219;-52
2021/01/27 07:30:55;;;;;;;6.35;4.30;;;;;;;;;;5090066;28;20211;-52
2021/01/27 07:33:25;;;;;;;4.80;4.32;;;;;;;;;;5089639;28;20169;-50
2021/01/27 07:36:16;;;;;;;4.07;3.42;;;;;;;;;;5089724;28;20252;-50
2021/01/27 07:38:44;;;;;;;7.30;3.85;;;;;;;;;;5089586;28;20207;-52
2021/01/27 07:41:14;;;;;;;4.47;4.00;;;;;;;;;;5089659;28;20165;-52
2021/01/27 07:43:59;;;;;;;4.15;3.75;;;;;;;;;;5069609;28;20174;-52
2021/01/27 07:46:34;;;;;;;4.90;4.40;;;;;;;;;;5076312;28;20645;-50
2021/01/27 07:49:05;;;;;;;7.07;5.00;;;;;;;;;;5093900;28;20200;-52
2021/01/27 07:51:36;;;;;;;5.60;4.50;;;;;;;;;;5094215;28;20641;-50
2021/01/27 07:54:26;;;;;;;6.53;4.88;;;;;;;;;;5093982;28;20204;-52
2021/01/27 07:57:00;;;;;;;6.53;5.93;;;;;;;;;;5083319;28;20208;-50
2021/01/27 07:59:32;;;;;;;4.93;4.43;;;;;;;;;;5093750;28;20200;-52
2021/01/27 08:02:00;;;;;;;5.75;4.90;;;;;;;;;;5094152;28;20173;-52
2021/01/27 08:04:38;;;;;;;6.47;5.13;;;;;;;;;;5093858;28;20257;-50
2021/01/27 08:07:04;;;;;;;4.80;4.40;;;;;;;;;;5093658;28;20216;-52
2021/01/27 08:09:30;;;;;;;5.20;4.80;;;;;;;;;;5090993;28;20729;-52
2021/01/27 08:12:18;;;;;;;4.53;4.13;;;;;;;;;;5073374;28;20182;-52
2021/01/27 08:14:59;;;;;;;5.55;5.05;;;;;;;;;;5073663;28;20403;-51
2021/01/27 08:17:43;;;;;;;5.53;4.72;;;;;;;;;;5073206;28;20169;-50
2021/01/27 08:20:20;;;;;;;7.38;5.03;;;;;;;;;;5073099;28;20726;-51
2021/01/27 08:22:47;;;;;;;5.53;4.93;;;;;;;;;;5073505;28;20236;-52
2021/01/27 08:25:33;;;;;;;4.63;4.20;;;;;;;;;;5072971;28;20166;-50
2021/01/27 08:28:18;;;;;;;4.40;4.00;;;;;;;;;;5073193;28;20173;-50
2021/01/27 08:30:47;;;;;;;5.97;5.00;;;;;;;;;;5073256;28;20166;-50
2021/01/27 08:33:32;;;;;;;5.38;4.93;;;;;;;;;;5073125;28;20158;-51
2021/01/27 08:36:01;;;;;;;4.97;4.57;;;;;;;;;;5073085;28;20458;-51
2021/01/27 08:38:29;;;;;;;5.07;4.57;;;;;;;;;;5072956;28;20228;-50
2021/01/27 08:40:56;;;;;;;5.63;4.85;;;;;;;;;;5072680;28;20166;-50
2021/01/27 08:43:26;;;;;;;6.47;4.85;;;;;;;;;;5072713;28;20253;-50
2021/01/27 08:45:52;;;;;;;5.72;5.10;;;;;;;;;;5072785;28;20249;-50
2021/01/27 08:48:37;;;;;;;5.20;4.70;;;;;;;;;;5072764;28;20273;-50
2021/01/27 08:51:03;;;;;;;5.65;4.45;;;;;;;;;;5072799;28;20173;-53
2021/01/27 08:53:49;;;;;;;5.03;4.63;;;;;;;;;;5072472;28;20201;-52
2021/01/27 08:56:15;;;;;;;4.47;4.07;;;;;;;;;;5072535;28;20166;-51
2021/01/27 08:58:45;;;;;;;5.17;4.67;;;;;;;;;;5071969;28;20251;-52
2021/01/27 09:01:24;;;;;;;5.57;4.28;;;;;;;;;;5072983;28;20403;-50
2021/01/27 09:03:50;;;;;;;5.60;4.20;;;;;;;;;;5072422;28;20594;-51
2021/01/27 09:06:34;;;;;;;4.05;3.75;;;;;;;;;;5072326;28;20174;-50
2021/01/27 09:09:12;;;;;;;3.75;3.45;;;;;;;;;;5072572;28;20328;-51
2021/01/27 09:11:39;;;;;;;4.82;4.43;;;;;;;;;;5072438;28;20568;-50
2021/01/27 09:14:10;;;;;;;4.13;3.80;;;;;;;;;;5072347;28;20249;-50
2021/01/27 09:16:36;;;;;;;4.40;4.00;;;;;;;;;;5072092;28;20158;-52
2021/01/27 09:19:16;;;;;;;3.88;3.60;;;;;;;;;;5072261;28;20198;-50
2021/01/27 09:21:43;;;;;;;4.55;4.22;;;;;;;;;;5072215;28;20612;-50
2021/01/27 09:24:26;;;;;;;4.30;3.95;;;;;;;;;;5072151;28;20542;-50
2021/01/27 09:26:53;;;;;;;4.78;4.00;;;;;;;;;;5071769;28;20543;-50
2021/01/27 09:29:24;;;;;;;3.53;3.33;;;;;;;;;;5072056;28;20662;-50
2021/01/27 09:31:50;;;;;;;4.03;3.45;;;;;;;;;;5071777;28;20549;-50
2021/01/27 09:34:20;;;;;;;3.80;3.50;;;;;;;;;;5071974;28;20185;-49
2021/01/27 09:36:47;;;;;;;3.60;3.40;;;;;;;;;;5071588;28;20266;-50
2021/01/27 09:39:13;;;;;;;4.05;3.75;;;;;;;;;;5071660;28;20272;-50
2021/01/27 09:41:41;;;;;;;3.70;3.40;;;;;;;;;;5071579;28;20217;-53
2021/01/27 09:44:15;;;;;;;4.15;3.40;;;;;;;;;;5071697;28;20166;-52
2021/01/27 09:46:41;;;;;;;3.88;3.58;;;;;;;;;;5071074;28;20165;-50
2021/01/27 09:49:10;;;;;;;3.93;3.63;;;;;;;;;;5067515;28;20251;-51
2021/01/27 09:51:38;;;;;;;3.65;3.35;;;;;;;;;;5071486;28;20423;-50
2021/01/27 09:54:04;;;;;;;2.97;2.78;;;;;;;;;;5071544;28;20200;-52
2021/01/27 09:56:31;;;;;;;3.35;3.15;;;;;;;;;;5071223;28;20178;-51
2021/01/27 09:58:58;;;;;;;3.35;3.15;;;;;;;;;;5071481;28;20564;-50
2021/01/27 10:01:26;;;;;;;3.67;3.47;;;;;;;;;;5071480;28;20245;-50
2021/01/27 10:03:54;;;;;;;3.83;3.33;;;;;;;;;;5085814;28;20166;-52
2021/01/27 10:06:30;;;;;;;3.72;3.53;;;;;;;;;;5088281;28;20239;-50
2021/01/27 10:08:58;;;;;;;4.07;3.67;;;;;;;;;;5080771;28;20284;-50
2021/01/27 10:11:31;;;;;;;4.90;3.60;;;;;;;;;;5081315;28;20206;-50
2021/01/27 10:14:03;;;;;;;3.72;3.42;;;;;;;;;;5087625;28;20178;-50
2021/01/27 10:16:29;;;;;;;3.35;3.13;;;;;;;;;;5071041;28;20171;-51
2021/01/27 10:19:02;;;;;;;3.60;3.40;;;;;;;;;;5070246;28;20210;-52
2021/01/27 10:21:28;;;;;;;3.83;3.63;;;;;;;;;;5070862;28;20400;-50
2021/01/27 10:23:54;;;;;;;3.90;3.60;;;;;;;;;;5070895;28;20211;-50
2021/01/27 10:26:40;;;;;;;5.13;4.13;;;;;;;;;;5070781;28;20626;-50
2021/01/27 10:29:33;;;;;;;4.68;4.28;;;;;;;;;;5070723;28;20557;-50
2021/01/27 10:32:17;;;;;;;4.30;3.90;;;;;;;;;;5068124;28;20733;-50
2021/01/27 10:34:45;;;;;;;4.53;4.20;;;;;;;;;;5071027;28;20648;-50
2021/01/27 10:37:29;;;;;;;4.30;4.05;;;;;;;;;;5070581;28;20676;-50
2021/01/27 10:40:07;;;;;;;5.50;4.38;;;;;;;;;;5070874;28;20253;-53
2021/01/27 10:42:38;;;;;;;5.82;4.85;;;;;;;;;;5084924;28;20637;-52
2021/01/27 10:45:15;;;;;;;4.75;4.35;;;;;;;;;;5090914;28;20535;-50
2021/01/27 10:47:42;;;;;;;4.70;4.30;;;;;;;;;;5090684;28;20597;-50
2021/01/27 10:50:09;;;;;;;4.88;4.47;;;;;;;;;;5090269;28;20186;-52
2021/01/27 10:52:35;;;;;;;4.90;4.50;;;;;;;;;;5090834;28;20165;-50
2021/01/27 10:55:02;;;;;;;5.32;4.93;;;;;;;;;;5090831;28;20177;-50
2021/01/27 10:57:28;;;;;;;6.10;5.60;;;;;;;;;;5090356;28;20222;-51
2021/01/27 10:59:56;;;;;;;5.32;4.82;;;;;;;;;;5090664;28;20204;-52
2021/01/27 11:02:22;;;;;;;5.65;5.10;;;;;;;;;;5090840;28;20162;-50
2021/01/27 11:04:48;;;;;;;5.15;4.72;;;;;;;;;;5090511;28;20718;-50
2021/01/27 11:07:16;;;;;;;5.93;4.50;;;;;;;;;;5090570;28;20164;-50
2021/01/27 11:09:42;;;;;;;5.07;4.65;;;;;;;;;;5089788;28;20430;-50
2021/01/27 11:12:08;;;;;;;5.95;5.45;;;;;;;;;;5077765;28;20189;-50
2021/01/27 11:14:34;;;;;;;5.32;4.82;;;;;;;;;;5069398;28;20179;-50
2021/01/27 11:17:01;;;;;;;5.37;4.87;;;;;;;;;;5069591;28;20174;-51
2021/01/27 11:19:27;;;;;;;5.10;4.70;;;;;;;;;;5069293;28;20521;-51
2021/01/27 11:21:53;;;;;;;4.82;4.53;;;;;;;;;;5071853;28;20174;-51
2021/01/27 11:24:19;;;;;;;5.20;4.75;;;;;;;;;;5074013;28;20178;-50
2021/01/27 11:26:45;;;;;;;5.70;5.30;;;;;;;;;;5073454;28;20216;-50
2021/01/27 11:29:11;;;;;;;6.57;5.97;;;;;;;;;;5073707;28;20542;-51
2021/01/27 11:31:37;;;;;;;5.80;5.38;;;;;;;;;;5073192;28;20396;-51
2021/01/27 11:34:03;;;;;;;6.60;6.00;;;;;;;;;;5073443;28;20181;-50
2021/01/27 11:36:31;;;;;;;9.77;6.57;;;;;;;;;;5073219;28;20202;-50
2021/01/27 11:38:57;;;;;;;6.57;6.03;;;;;;;;;;5073412;28;20234;-50
2021/01/27 11:41:24;;;;;;;9.80;6.47;;;;;;;;;;5073314;28;20198;-50
2021/01/27 11:43:50;;;;;;;7.28;6.68;;;;;;;;;;5091793;28;20419;-51
2021/01/27 11:46:18;;;;;;;6.03;5.32;;;;;;;;;;5093698;28;20167;-50
2021/01/27 11:48:44;;;;;;;5.40;5.00;;;;;;;;;;5093319;28;20260;-50
2021/01/27 11:51:11;;;;;;;6.55;5.75;;;;;;;;;;5091910;28;20181;-51
2021/01/27 11:53:38;;;;;;;6.38;5.88;;;;;;;;;;5094008;28;20253;-55
2021/01/27 11:56:04;;;;;;;6.63;5.85;;;;;;;;;;5093787;28;20212;-50
2021/01/27 11:58:30;;;;;;;6.40;5.72;;;;;;;;;;5079923;28;20461;-51
2021/01/27 12:00:57;;;;;;;6.70;5.03;;;;;;;;;;5073473;28;20169;-51
2021/01/27 12:03:23;;;;;;;5.30;4.82;;;;;;;;;;5074081;28;20408;-50
2021/01/27 12:05:49;;;;;;;5.75;5.25;;;;;;;;;;5073608;28;20166;-50
2021/01/27 12:08:16;;;;;;;5.07;4.65;;;;;;;;;;5073477;28;20253;-50
2021/01/27 12:10:42;;;;;;;4.70;4.30;;;;;;;;;;5073454;28;20189;-51
2021/01/27 12:13:08;;;;;;;5.05;4.65;;;;;;;;;;5072201;28;20169;-50
2021/01/27 12:15:34;;;;;;;5.57;5.07;;;;;;;;;;5073232;28;20168;-51
2021/01/27 12:18:00;;;;;;;6.53;4.93;;;;;;;;;;5073015;28;20834;-53
2021/01/27 12:20:26;;;;;;;5.97;5.25;;;;;;;;;;5073182;28;20881;-51
2021/01/27 12:22:52;;;;;;;5.70;5.20;;;;;;;;;;5073213;28;20171;-52
2021/01/27 12:25:18;;;;;;;5.73;5.20;;;;;;;;;;5073201;28;20213;-51
2021/01/27 12:27:44;;;;;;;7.22;4.90;;;;;;;;;;5073100;28;20403;-53
2021/01/27 12:30:11;;;;;;;5.30;4.80;;;;;;;;;;5073193;28;20190;-51
2021/01/27 12:32:39;;;;;;;5.15;4.65;;;;;;;;;;5071490;28;20839;-50
2021/01/27 12:35:06;;;;;;;4.50;4.10;;;;;;;;;;5075770;28;20167;-50
2021/01/27 12:37:32;;;;;;;6.38;4.32;;;;;;;;;;5112905;28;20394;-51
2021/01/27 12:39:58;;;;;;;4.50;4.20;;;;;;;;;;5113236;28;20211;-51
2021/01/27 12:42:24;;;;;;;4.57;4.27;;;;;;;;;;5113519;28;20395;-50
2021/01/27 12:44:50;;;;;;;4.78;4.32;;;;;;;;;;5086496;28;20917;-51
2021/01/27 12:47:17;;;;;;;4.13;3.80;;;;;;;;;;5072717;28;20178;-51
2021/01/27 12:49:43;;;;;;;4.20;3.90;;;;;;;;;;5072601;28;20481;-52
2021/01/27 12:52:09;;;;;;;4.25;3.95;;;;;;;;;;5072739;28;20643;-51
2021/01/27 12:54:35;;;;;;;4.20;3.90;;;;;;;;;;5073083;28;20186;-51
2021/01/27 12:57:01;;;;;;;4.00;3.60;;;;;;;;;;5072219;28;20172;-52
2021/01/27 12:59:27;;;;;;;4.47;4.07;;;;;;;;;;5072257;28;20509;-52
2021/01/27 13:01:53;;;;;;;5.20;4.70;;;;;;;;;;5072418;28;20403;-51
2021/01/27 13:04:19;;;;;;;4.73;4.10;;;;;;;;;;5072706;28;20679;-51
2021/01/27 13:06:45;;;;;;;4.95;4.28;;;;;;;;;;5072108;28;20403;-50
2021/01/27 13:09:11;;;;;;;4.70;4.30;;;;;;;;;;5072665;28;20268;-51
2021/01/27 13:11:37;;;;;;;5.57;5.10;;;;;;;;;;5072109;28;20399;-51
2021/01/27 13:14:02;;;;;;;4.90;4.50;;;;;;;;;;5072207;28;20432;-50
2021/01/27 13:16:28;;;;;;;5.03;4.63;;;;;;;;;;5079045;28;20429;-51
2021/01/27 13:18:55;;;;;;;6.03;5.27;;;;;;;;;;5092149;28;20570;-51
2021/01/27 13:21:21;;;;;;;9.07;5.07;;;;;;;;;;5092475;28;20402;-53
2021/01/27 13:23:50;;;;;;;6.00;5.50;;;;;;;;;;5092307;28;20275;-53
2021/01/27 13:26:16;;;;;;;6.13;5.53;;;;;;;;;;5092594;28;20174;-52
2021/01/27 13:28:42;;;;;;;5.70;5.20;;;;;;;;;;5091920;28;20210;-51
2021/01/27 13:31:08;;;;;;;6.15;5.40;;;;;;;;;;5092282;28;20167;-52
2021/01/27 13:33:34;;;;;;;8.35;6.68;;;;;;;;;;5092267;28;20166;-53
2021/01/27 13:36:00;;;;;;;8.00;6.30;;;;;;;;;;5091928;28;20289;-52
2021/01/27 13:38:26;;;;;;;12.57;6.68;;;;;;;;;;5091859;28;20197;-52
2021/01/27 13:40:52;;;;;;;7.27;6.50;;;;;;;;;;5091789;28;20173;-52
2021/01/27 13:43:19;;;;;;;8.00;6.90;;;;;;;;;;5090518;28;20825;-53
2021/01/27 13:45:45;;;;;;;8.13;7.32;;;;;;;;;;5091544;28;20652;-51
2021/01/27 13:48:11;;;;;;;9.93;7.07;;;;;;;;;;5091714;28;20177;-54
2021/01/27 13:50:38;;;;;;;10.73;7.72;;;;;;;;;;5091778;28;20201;-52
2021/01/27 13:53:04;;;;;;;7.78;6.80;;;;;;;;;;5091980;28;20168;-52
2021/01/27 13:55:30;;;;;;;9.07;7.40;;;;;;;;;;5091519;28;20176;-52
2021/01/27 13:57:56;;;;;;;7.93;7.13;;;;;;;;;;5091803;28;20176;-52
2021/01/27 14:00:23;;;;;;;8.13;6.68;;;;;;;;;;5090609;28;21040;-52
2021/01/27 14:02:49;;;;;;;8.45;7.57;;;;;;;;;;5091653;28;20300;-53
2021/01/27 14:05:19;;;;;;;9.35;8.18;;;;;;;;;;5091771;28;20171;-51
2021/01/27 14:07:45;;;;;;;9.93;8.40;;;;;;;;;;5091605;28;20233;-51
2021/01/27 14:10:12;;;;;;;8.23;7.15;;;;;;;;;;5091821;28;20192;-53
2021/01/27 14:12:38;;;;;;;9.48;7.75;;;;;;;;;;5091563;28;20187;-52
2021/01/27 14:15:04;;;;;;;9.03;7.90;;;;;;;;;;5076570;28;20639;-53
2021/01/27 14:17:30;;;;;;;9.20;7.80;;;;;;;;;;5070813;28;20844;-52
2021/01/27 14:19:57;;;;;;;7.97;7.17;;;;;;;;;;5070823;28;20231;-53
2021/01/27 14:22:23;;;;;;;11.88;7.93;;;;;;;;;;5071008;28;20408;-52
2021/01/27 14:24:49;;;;;;;8.83;7.10;;;;;;;;;;5070707;28;20689;-52
2021/01/27 14:27:15;;;;;;;11.43;8.23;;;;;;;;;;5070892;28;20598;-52
2021/01/27 14:29:40;;;;;;;7.40;6.57;;;;;;;;;;5070738;28;20432;-52
2021/01/27 14:32:06;;;;;;;11.50;7.60;;;;;;;;;;5070833;28;20821;-52
2021/01/27 14:34:32;;;;;;;8.03;7.23;;;;;;;;;;5070768;28;20402;-52
2021/01/27 14:36:58;;;;;;;9.60;7.77;;;;;;;;;;5070525;28;20454;-52
2021/01/27 14:39:24;;;;;;;9.65;7.80;;;;;;;;;;5070661;28;20453;-53
2021/01/27 14:41:50;;;;;;;9.23;7.50;;;;;;;;;;5070602;28;20178;-52
2021/01/27 14:44:16;;;;;;;10.83;8.43;;;;;;;;;;5070162;28;20431;-53
2021/01/27 14:46:45;;;;;;;10.02;7.28;;;;;;;;;;5070267;28;20444;-52
2021/01/27 14:49:11;;;;;;;8.75;7.18;;;;;;;;;;5070699;28;20198;-52
2021/01/27 14:51:37;;;;;;;10.10;8.43;;;;;;;;;;5071038;28;20169;-52
2021/01/27 14:54:03;;;;;;;9.32;7.90;;;;;;;;;;5070616;28;20454;-52
2021/01/27 14:56:30;;;;;;;8.73;7.63;;;;;;;;;;5069843;28;20603;-53
2021/01/27 14:58:56;;;;;;;10.60;7.95;;;;;;;;;;5070360;28;20192;-52
2021/01/27 15:01:22;;;;;;;15.50;8.63;;;;;;;;;;5070467;28;20229;-53